Time;durP1;ratioP1;P1;durP2;ratioP2;P2;SDS_P1;SDS_P2;PMS_P1;PMS_P2;Temp;Humidity;BMP_temperature;BMP_pressure;BME280_temperature;BME280_humidity;BME280_pressure;Samples;Min_cycle;Max_cycle;Signal;HPM_P1;HPM_P2
2022/07/29 10:51:57;;;;;;;3.38;2.05;;;26.90;60.90;;;;;;5692427;23;20311;-78
2022/07/29 10:54:42;;;;;;;4.70;2.05;;;27.20;60.70;;;;;;4908588;29;20215;-78
2022/07/29 10:57:19;;;;;;;2.72;2.38;;;26.70;58.80;;;;;;4917448;29;20218;-77
2022/07/29 10:59:47;;;;;;;2.70;1.95;;;26.40;62.10;;;;;;4912753;29;20214;-78
2022/07/29 11:02:48;;;;;;;3.70;1.95;;;27.00;59.40;;;;;;4905250;29;20235;-77
2022/07/29 11:05:17;;;;;;;7.57;1.67;;;27.70;60.30;;;;;;4916732;29;20586;-77
2022/07/29 11:08:21;;;;;;;3.70;2.13;;;27.90;58.50;;;;;;4916757;29;20302;-78
2022/07/29 11:10:49;;;;;;;4.63;3.28;;;27.30;55.40;;;;;;4906590;29;20216;-78
2022/07/29 11:13:46;;;;;;;2.60;2.17;;;26.50;55.40;;;;;;4913736;29;20208;-79
2022/07/29 11:16:14;;;;;;;2.22;2.03;;;25.70;55.50;;;;;;4911021;29;20311;-78
2022/07/29 11:19:14;;;;;;;3.92;2.60;;;25.50;55.20;;;;;;4896978;29;20216;-78
2022/07/29 11:21:42;;;;;;;5.97;2.30;;;26.40;58.30;;;;;;4911687;29;20239;-78
2022/07/29 11:24:20;;;;;;;2.58;2.38;;;26.70;58.30;;;;;;4914147;29;20333;-76
2022/07/29 11:27:14;;;;;;;4.47;2.45;;;26.90;56.10;;;;;;4912227;29;20242;-79
2022/07/29 11:29:53;;;;;;;3.45;2.50;;;26.20;55.50;;;;;;4906651;29;20244;-77
2022/07/29 11:32:20;;;;;;;3.08;2.50;;;25.30;56.20;;;;;;4896901;29;20684;-79
2022/07/29 11:34:49;;;;;;;5.10;2.50;;;26.30;58.70;;;;;;4896771;29;20591;-78
2022/07/29 11:37:23;;;;;;;4.57;2.55;;;26.70;57.30;;;;;;4908668;29;20683;-77
2022/07/29 11:40:22;;;;;;;2.63;2.42;;;27.30;60.40;;;;;;4916277;29;20219;-78
2022/07/29 11:42:51;;;;;;;3.55;2.00;;;27.80;57.20;;;;;;4911391;29;20236;-79
2022/07/29 11:45:31;;;;;;;4.63;2.38;;;26.90;55.70;;;;;;4916866;29;20691;-78
2022/07/29 11:47:59;;;;;;;4.60;2.53;;;27.10;55.80;;;;;;4916701;29;20215;-79
2022/07/29 11:50:35;;;;;;;5.10;2.47;;;26.70;54.50;;;;;;4916523;29;20207;-78
2022/07/29 11:53:04;;;;;;;4.05;2.22;;;26.30;55.20;;;;;;4916365;29;20278;-80
2022/07/29 11:55:35;;;;;;;3.10;2.10;;;26.10;53.80;;;;;;4916620;29;20204;-78
2022/07/29 11:58:04;;;;;;;2.20;1.73;;;25.40;54.00;;;;;;4916701;29;20243;-77
2022/07/29 12:00:32;;;;;;;2.00;1.80;;;25.40;53.00;;;;;;4906144;29;20279;-78
2022/07/29 12:03:01;;;;;;;3.35;1.88;;;25.90;53.70;;;;;;4913385;29;20671;-79
2022/07/29 12:05:34;;;;;;;2.03;1.50;;;25.60;49.10;;;;;;4916252;29;20216;-78
2022/07/29 12:08:13;;;;;;;3.50;1.45;;;25.50;48.50;;;;;;4916304;29;20219;-78
2022/07/29 12:10:41;;;;;;;3.50;2.05;;;25.60;49.90;;;;;;4916015;29;20267;-82
2022/07/29 12:13:11;;;;;;;2.45;1.80;;;25.70;50.30;;;;;;4916136;29;20323;-79
2022/07/29 12:15:38;;;;;;;2.65;1.77;;;25.60;50.00;;;;;;4915773;29;20755;-78
2022/07/29 12:18:15;;;;;;;2.15;1.95;;;25.70;50.50;;;;;;4915989;29;20267;-78
2022/07/29 12:20:42;;;;;;;4.05;1.77;;;25.90;50.40;;;;;;4915504;29;20687;-77
2022/07/29 12:23:11;;;;;;;3.60;1.77;;;26.00;51.10;;;;;;4916049;29;20291;-77
2022/07/29 12:25:39;;;;;;;2.13;1.92;;;26.10;49.70;;;;;;4915728;29;20289;-79
2022/07/29 12:28:10;;;;;;;3.63;2.75;;;26.10;49.70;;;;;;4915848;29;20222;-79
2022/07/29 12:30:40;;;;;;;3.50;3.03;;;26.20;50.40;;;;;;4915791;29;20211;-77
2022/07/29 12:33:17;;;;;;;1.95;1.63;;;26.50;50.70;;;;;;4915741;29;20219;-78
2022/07/29 12:35:46;;;;;;;2.75;1.65;;;27.20;51.50;;;;;;4915142;29;20254;-78
2022/07/29 12:38:14;;;;;;;3.22;1.85;;;27.90;50.50;;;;;;4915228;29;20675;-78
2022/07/29 12:40:41;;;;;;;4.90;2.28;;;27.90;49.40;;;;;;4915452;29;20271;-80
2022/07/29 12:43:11;;;;;;;2.20;2.03;;;27.90;50.10;;;;;;4915588;29;20322;-76
2022/07/29 12:45:38;;;;;;;5.20;2.40;;;28.20;48.50;;;;;;4915324;29;20215;-78
2022/07/29 12:48:08;;;;;;;3.35;2.15;;;27.90;48.30;;;;;;4915481;29;20255;-79
2022/07/29 12:50:36;;;;;;;2.22;1.55;;;27.80;49.50;;;;;;4915198;29;20770;-78
2022/07/29 12:53:11;;;;;;;2.55;2.03;;;27.60;48.50;;;;;;4915317;29;20263;-78
2022/07/29 12:55:42;;;;;;;3.70;2.17;;;27.60;49.00;;;;;;4915220;29;20207;-79
2022/07/29 12:58:10;;;;;;;2.67;2.00;;;27.50;46.80;;;;;;4915675;29;20300;-78
2022/07/29 13:00:37;;;;;;;2.92;1.90;;;27.40;47.70;;;;;;4903909;29;20272;-78
2022/07/29 13:03:05;;;;;;;1.73;1.63;;;27.20;47.10;;;;;;4913244;29;20346;-79
2022/07/29 13:05:42;;;;;;;2.42;1.63;;;27.20;48.00;;;;;;4915047;29;20203;-78
2022/07/29 13:08:18;;;;;;;1.33;1.23;;;27.10;46.50;;;;;;4915009;29;20560;-78
2022/07/29 13:10:45;;;;;;;3.95;2.63;;;27.20;46.20;;;;;;4915464;29;20221;-78
2022/07/29 13:13:16;;;;;;;3.53;1.67;;;26.90;46.10;;;;;;4915118;29;20208;-77
2022/07/29 13:15:46;;;;;;;1.77;1.60;;;26.60;45.50;;;;;;4914862;29;20265;-77
2022/07/29 13:18:29;;;;;;;2.78;2.00;;;26.60;46.30;;;;;;4915062;29;20211;-78
2022/07/29 13:20:57;;;;;;;2.80;1.80;;;26.60;46.40;;;;;;4915227;29;20220;-80
2022/07/29 13:23:24;;;;;;;2.25;1.80;;;26.50;47.00;;;;;;4915286;29;20231;-78
2022/07/29 13:25:51;;;;;;;1.58;1.45;;;26.50;45.80;;;;;;4914557;29;20653;-78
2022/07/29 13:28:21;;;;;;;3.78;1.95;;;26.60;48.70;;;;;;4914669;29;20216;-78
2022/07/29 13:30:48;;;;;;;2.33;2.13;;;26.80;47.10;;;;;;4914785;29;20223;-79
2022/07/29 13:33:15;;;;;;;2.50;2.15;;;26.90;48.00;;;;;;4914507;29;20215;-78
2022/07/29 13:35:42;;;;;;;3.58;1.60;;;27.00;48.00;;;;;;4914630;29;20208;-78
2022/07/29 13:38:09;;;;;;;2.03;1.77;;;27.00;48.40;;;;;;4915122;29;20212;-78
2022/07/29 13:40:36;;;;;;;3.13;1.80;;;26.90;48.20;;;;;;4914242;29;20215;-79
2022/07/29 13:43:03;;;;;;;3.55;2.25;;;26.70;48.90;;;;;;4914769;29;20283;-80
2022/07/29 13:45:32;;;;;;;4.80;2.17;;;26.40;47.70;;;;;;4914514;29;20346;-78
2022/07/29 13:47:59;;;;;;;2.25;2.05;;;26.30;46.30;;;;;;4914639;29;20211;-77
2022/07/29 13:50:26;;;;;;;5.35;2.40;;;26.20;46.00;;;;;;4914955;29;20219;-83
2022/07/29 13:52:53;;;;;;;2.85;2.13;;;26.00;44.80;;;;;;4914106;29;20234;-81
2022/07/29 13:55:20;;;;;;;6.90;3.38;;;25.90;44.40;;;;;;4914231;29;20585;-79
2022/07/29 13:57:47;;;;;;;1.67;1.58;;;25.90;45.40;;;;;;4914241;29;20207;-80
2022/07/29 14:00:15;;;;;;;2.67;1.80;;;25.70;45.80;;;;;;4906269;29;20295;-78
2022/07/29 14:02:44;;;;;;;2.63;1.73;;;25.70;46.30;;;;;;4909308;29;20270;-80
2022/07/29 14:05:11;;;;;;;2.05;1.85;;;25.60;49.30;;;;;;4914422;29;20211;-81
2022/07/29 14:07:39;;;;;;;2.90;2.00;;;25.80;48.60;;;;;;4914063;29;20295;-77
2022/07/29 14:10:07;;;;;;;2.95;1.60;;;25.80;48.20;;;;;;4914110;29;20298;-78
2022/07/29 14:12:34;;;;;;;3.17;2.40;;;26.20;49.30;;;;;;4914311;29;20270;-77
2022/07/29 14:15:01;;;;;;;3.03;1.95;;;26.40;49.40;;;;;;4913931;29;20776;-79
2022/07/29 14:17:28;;;;;;;1.75;1.65;;;26.50;49.10;;;;;;4914564;29;20215;-78
2022/07/29 14:19:56;;;;;;;2.80;1.70;;;26.60;49.90;;;;;;4914262;29;20268;-79
2022/07/29 14:22:25;;;;;;;2.65;1.90;;;26.60;47.50;;;;;;4914475;29;20331;-77
2022/07/29 14:24:52;;;;;;;1.63;1.52;;;26.80;49.50;;;;;;4913754;29;20215;-78
2022/07/29 14:27:19;;;;;;;2.42;1.80;;;26.60;47.80;;;;;;4914366;29;20216;-78
2022/07/29 14:29:46;;;;;;;2.95;2.08;;;26.60;49.20;;;;;;4913816;29;20215;-78
2022/07/29 14:32:14;;;;;;;2.20;1.98;;;26.30;47.70;;;;;;4914242;29;20211;-78
2022/07/29 14:34:41;;;;;;;7.50;2.30;;;26.40;49.30;;;;;;4913725;29;20222;-81
2022/07/29 14:37:10;;;;;;;3.63;1.60;;;26.60;49.70;;;;;;4913904;29;20671;-80
2022/07/29 14:39:37;;;;;;;3.42;2.25;;;26.80;47.90;;;;;;4914095;29;20212;-80
2022/07/29 14:42:04;;;;;;;3.58;1.98;;;27.40;49.20;;;;;;4914231;29;20271;-81
2022/07/29 14:44:32;;;;;;;2.00;1.90;;;28.30;48.40;;;;;;4913991;29;20231;-78
2022/07/29 14:47:00;;;;;;;2.13;1.38;;;28.70;49.80;;;;;;4914054;29;20212;-76
2022/07/29 14:49:27;;;;;;;2.08;1.65;;;28.40;47.10;;;;;;4914168;29;20211;-75
2022/07/29 14:51:54;;;;;;;1.85;1.58;;;28.40;45.80;;;;;;4913915;29;20223;-76
2022/07/29 14:54:22;;;;;;;5.25;1.90;;;28.40;45.00;;;;;;4914289;29;20211;-77
2022/07/29 14:56:50;;;;;;;1.38;1.25;;;28.40;44.60;;;;;;4913952;29;20271;-77
2022/07/29 14:59:18;;;;;;;2.20;1.65;;;28.60;44.90;;;;;;4913038;29;20208;-77
2022/07/29 15:01:45;;;;;;;2.63;1.83;;;28.50;44.60;;;;;;4905054;29;20294;-78
2022/07/29 15:04:12;;;;;;;1.88;1.77;;;27.80;43.50;;;;;;4917490;29;20303;-77
2022/07/29 15:06:39;;;;;;;4.03;2.00;;;27.80;44.90;;;;;;4916941;29;20623;-75
2022/07/29 15:09:06;;;;;;;2.22;1.70;;;27.70;43.20;;;;;;4917605;29;20215;-77
2022/07/29 15:11:35;;;;;;;2.15;1.95;;;27.50;43.00;;;;;;4917006;29;20208;-76
2022/07/29 15:14:02;;;;;;;4.63;1.92;;;27.60;43.10;;;;;;4917205;29;20212;-76
2022/07/29 15:16:28;;;;;;;2.42;1.33;;;27.80;43.70;;;;;;4917353;29;20216;-76
2022/07/29 15:18:57;;;;;;;4.10;1.42;;;28.10;43.50;;;;;;4917234;29;20268;-78
2022/07/29 15:21:24;;;;;;;3.35;1.90;;;28.00;41.90;;;;;;4917600;29;20314;-76
2022/07/29 15:23:51;;;;;;;3.22;1.73;;;27.40;41.00;;;;;;4916855;29;20243;-76
2022/07/29 15:26:18;;;;;;;3.20;2.03;;;27.30;41.00;;;;;;4917225;29;20208;-76
2022/07/29 15:28:47;;;;;;;2.42;1.88;;;27.50;41.70;;;;;;4916421;29;20296;-76
2022/07/29 15:31:14;;;;;;;2.20;2.00;;;27.50;41.70;;;;;;4916968;29;20216;-76
2022/07/29 15:33:41;;;;;;;2.03;1.50;;;27.70;41.40;;;;;;4916390;29;20215;-76
2022/07/29 15:36:08;;;;;;;3.60;1.80;;;27.70;40.40;;;;;;4917117;29;20274;-78
2022/07/29 15:38:35;;;;;;;1.50;1.40;;;27.30;40.60;;;;;;4916552;29;20218;-78
2022/07/29 15:41:02;;;;;;;4.68;1.95;;;27.10;41.10;;;;;;4917022;29;20271;-77
2022/07/29 15:43:29;;;;;;;1.63;1.52;;;27.20;40.70;;;;;;4916382;29;20235;-76
2022/07/29 15:48:41;;;;;;;2.35;1.75;;;27.20;40.30;;;;;;4916291;29;20210;-77
2022/07/29 15:51:08;;;;;;;2.03;1.75;;;27.30;40.40;;;;;;4916711;29;20263;-76
2022/07/29 15:53:35;;;;;;;3.10;1.95;;;27.20;40.80;;;;;;4916531;29;20216;-75
2022/07/29 15:56:02;;;;;;;2.45;2.25;;;27.00;38.80;;;;;;4916280;29;20211;-78
2022/07/29 15:58:29;;;;;;;1.92;1.63;;;26.70;40.30;;;;;;4916471;29;20211;-76
2022/07/29 16:00:57;;;;;;;1.38;1.23;;;26.70;39.70;;;;;;4903093;29;20268;-75
2022/07/29 16:03:24;;;;;;;2.25;2.03;;;26.90;41.10;;;;;;4916753;29;20231;-78
2022/07/29 16:05:51;;;;;;;2.15;1.95;;;27.30;40.60;;;;;;4916130;29;20208;-78
2022/07/29 16:08:18;;;;;;;3.60;1.90;;;27.00;69.40;;;;;;4916209;29;20208;-77
2022/07/29 16:10:45;;;;;;;1.98;1.77;;;27.20;40.90;;;;;;4915560;29;20215;-78
2022/07/29 16:13:12;;;;;;;1.85;1.70;;;27.00;39.60;;;;;;4916075;29;20287;-77
2022/07/29 16:15:39;;;;;;;1.98;1.60;;;26.80;40.70;;;;;;4916207;29;20567;-76
2022/07/29 16:18:08;;;;;;;2.42;2.08;;;26.80;39.90;;;;;;4916020;29;20675;-77
2022/07/29 16:20:35;;;;;;;2.13;1.95;;;27.10;40.40;;;;;;4915916;29;20255;-78
2022/07/29 16:23:02;;;;;;;2.88;1.98;;;27.20;40.00;;;;;;4915877;29;20216;-77
2022/07/29 16:25:29;;;;;;;2.10;1.90;;;27.30;41.30;;;;;;4915614;29;20267;-76
2022/07/29 16:27:56;;;;;;;2.65;2.15;;;27.00;40.30;;;;;;4916175;29;20211;-77
2022/07/29 16:30:23;;;;;;;2.50;1.35;;;27.10;40.90;;;;;;4916222;29;20232;-76
2022/07/29 16:32:50;;;;;;;2.30;2.03;;;27.20;43.00;;;;;;4915597;29;20742;-76
2022/07/29 16:35:19;;;;;;;2.42;2.20;;;27.00;41.60;;;;;;4915882;29;20208;-76
2022/07/29 16:37:46;;;;;;;2.97;1.73;;;26.80;41.70;;;;;;4915434;29;20211;-75
2022/07/29 16:40:13;;;;;;;4.55;2.35;;;26.90;40.70;;;;;;4915350;29;20267;-76
2022/07/29 16:42:40;;;;;;;2.28;2.00;;;26.80;42.20;;;;;;4915656;29;20215;-79
2022/07/29 16:45:08;;;;;;;2.80;1.80;;;26.60;41.70;;;;;;4915846;29;20239;-78
2022/07/29 16:47:35;;;;;;;3.30;1.80;;;26.50;42.20;;;;;;4915141;29;20747;-76
2022/07/29 16:50:02;;;;;;;2.25;1.50;;;26.50;41.10;;;;;;4915531;29;20212;-76
2022/07/29 16:52:31;;;;;;;2.10;1.88;;;26.40;42.40;;;;;;4915313;29;20234;-76
2022/07/29 16:54:57;;;;;;;1.80;1.70;;;26.70;43.60;;;;;;4915937;29;20215;-77
2022/07/29 16:57:24;;;;;;;3.80;1.88;;;26.70;42.90;;;;;;4915775;29;20208;-76
2022/07/29 16:59:52;;;;;;;2.25;1.95;;;26.60;43.00;;;;;;4909896;29;20695;-76
2022/07/29 17:02:19;;;;;;;2.53;2.08;;;26.50;42.10;;;;;;4907406;29;20220;-76
2022/07/29 17:04:46;;;;;;;3.13;1.92;;;26.60;42.60;;;;;;4914911;29;20265;-76
2022/07/29 17:07:13;;;;;;;1.92;1.70;;;26.40;42.80;;;;;;4915223;29;20671;-76
2022/07/29 17:09:41;;;;;;;3.55;1.52;;;26.30;50.80;;;;;;4914431;29;20640;-76
2022/07/29 17:12:09;;;;;;;3.30;1.92;;;26.20;42.10;;;;;;4898237;29;20212;-76
2022/07/29 17:14:36;;;;;;;2.25;2.05;;;26.20;43.30;;;;;;4895172;29;20748;-79
2022/07/29 17:17:04;;;;;;;2.20;2.00;;;26.10;44.20;;;;;;4895859;29;20216;-79
2022/07/29 17:19:33;;;;;;;2.78;2.40;;;26.10;43.90;;;;;;4895943;29;20240;-76
2022/07/29 17:22:01;;;;;;;2.20;1.70;;;26.10;45.00;;;;;;4895926;29;20222;-78
2022/07/29 17:24:28;;;;;;;2.72;2.20;;;25.90;45.40;;;;;;4895672;29;20239;-78
2022/07/29 17:26:56;;;;;;;2.45;2.13;;;25.90;46.80;;;;;;4895422;29;20208;-77
2022/07/29 17:29:23;;;;;;;2.80;2.05;;;25.70;44.20;;;;;;4896394;29;20212;-77
2022/07/29 17:31:50;;;;;;;5.70;2.90;;;25.60;46.10;;;;;;4895487;29;20213;-77
2022/07/29 17:34:17;;;;;;;4.07;2.67;;;25.60;45.70;;;;;;4895857;29;20244;-78
2022/07/29 17:36:44;;;;;;;2.38;1.85;;;25.50;46.80;;;;;;4895528;29;20279;-79
2022/07/29 17:39:11;;;;;;;2.28;2.00;;;25.50;45.80;;;;;;4895898;29;20208;-79
2022/07/29 17:41:40;;;;;;;3.38;2.50;;;25.50;47.80;;;;;;4895702;29;20216;-78
2022/07/29 17:44:08;;;;;;;2.50;2.30;;;25.40;47.50;;;;;;4895706;29;20326;-77
2022/07/29 17:46:35;;;;;;;3.65;2.15;;;25.30;47.70;;;;;;4895334;29;20296;-78
2022/07/29 17:49:03;;;;;;;2.00;1.90;;;25.30;48.40;;;;;;4895404;29;21284;-76
2022/07/29 17:51:30;;;;;;;2.85;2.53;;;25.10;48.90;;;;;;4905691;29;20691;-78
2022/07/29 17:53:58;;;;;;;2.03;1.92;;;25.00;47.80;;;;;;4898641;29;20238;-77
2022/07/29 17:56:25;;;;;;;3.22;2.63;;;25.00;49.30;;;;;;4895831;29;20719;-76
2022/07/29 17:58:52;;;;;;;3.53;2.17;;;25.00;49.30;;;;;;4895217;29;20341;-76
2022/07/29 18:01:21;;;;;;;1.63;1.52;;;24.90;50.80;;;;;;4911870;29;20203;-79
2022/07/29 18:03:48;;;;;;;2.15;1.83;;;24.90;50.40;;;;;;4901047;29;20240;-75
2022/07/29 18:06:15;;;;;;;3.00;2.70;;;25.00;50.20;;;;;;4909758;29;20207;-79
2022/07/29 18:08:46;;;;;;;2.72;2.22;;;25.00;50.00;;;;;;4896216;29;20213;-79
2022/07/29 18:11:13;;;;;;;3.38;2.33;;;25.10;50.00;;;;;;4897340;29;20303;-75
2022/07/29 18:13:40;;;;;;;3.13;2.15;;;25.00;49.90;;;;;;4896870;29;20232;-73
2022/07/29 18:16:07;;;;;;;2.50;2.25;;;24.90;50.30;;;;;;4899557;29;20214;-74
2022/07/29 18:18:36;;;;;;;2.75;2.28;;;24.90;51.90;;;;;;4898238;29;20208;-75
2022/07/29 18:21:03;;;;;;;4.43;2.25;;;24.80;51.30;;;;;;4899735;29;20212;-74
2022/07/29 18:23:31;;;;;;;2.40;2.00;;;24.80;51.70;;;;;;4900509;29;20264;-74
2022/07/29 18:25:58;;;;;;;2.65;2.40;;;24.70;51.30;;;;;;4900105;29;20300;-74
2022/07/29 18:28:25;;;;;;;6.13;2.42;;;24.60;51.80;;;;;;4902821;29;20983;-75
2022/07/29 18:30:52;;;;;;;3.83;2.63;;;24.60;52.70;;;;;;4895999;29;20493;-74
2022/07/29 18:33:19;;;;;;;3.58;2.58;;;24.50;52.80;;;;;;4903411;29;20215;-73
2022/07/29 18:35:49;;;;;;;3.20;2.10;;;24.40;52.70;;;;;;4908527;29;20222;-76
2022/07/29 18:38:17;;;;;;;2.83;2.63;;;24.40;53.20;;;;;;4909836;29;20271;-76
2022/07/29 18:40:44;;;;;;;2.33;2.00;;;24.40;54.30;;;;;;4904260;29;20220;-75
2022/07/29 18:43:12;;;;;;;3.03;2.13;;;24.40;53.20;;;;;;4909838;29;20230;-77
2022/07/29 18:45:39;;;;;;;2.13;2.03;;;24.40;54.70;;;;;;4906847;29;20244;-77
2022/07/29 18:48:07;;;;;;;1.92;1.83;;;24.30;55.30;;;;;;4909600;29;20759;-73
2022/07/29 18:50:34;;;;;;;2.85;2.65;;;24.20;55.50;;;;;;4908430;29;20710;-73
2022/07/29 18:53:04;;;;;;;2.67;2.33;;;24.20;55.70;;;;;;4910015;29;20219;-78
2022/07/29 18:55:31;;;;;;;2.22;2.03;;;24.20;55.00;;;;;;4911143;29;20681;-75
2022/07/29 18:57:57;;;;;;;3.35;2.15;;;24.20;56.10;;;;;;4904160;29;20212;-74
2022/07/29 19:00:26;;;;;;;3.00;1.92;;;24.20;55.90;;;;;;4904642;29;20646;-74
2022/07/29 19:02:53;;;;;;;2.42;2.22;;;24.10;56.80;;;;;;4911375;29;20608;-72
2022/07/29 19:05:21;;;;;;;3.15;2.53;;;24.10;57.50;;;;;;4902764;29;20287;-73
2022/07/29 19:07:49;;;;;;;3.22;1.98;;;24.10;56.50;;;;;;4903052;29;20726;-74
2022/07/29 19:10:17;;;;;;;2.15;1.95;;;24.00;59.40;;;;;;4903750;29;20748;-74
2022/07/29 19:12:44;;;;;;;2.63;2.42;;;24.00;58.00;;;;;;4909163;29;20214;-73
2022/07/29 19:15:11;;;;;;;2.78;2.42;;;24.00;58.40;;;;;;4904985;29;20204;-75
2022/07/29 19:17:39;;;;;;;2.78;2.58;;;23.90;59.20;;;;;;4909794;29;20259;-74
2022/07/29 19:20:07;;;;;;;2.70;1.90;;;23.90;59.20;;;;;;4907058;29;20743;-74
2022/07/29 19:22:34;;;;;;;3.72;2.45;;;23.80;59.10;;;;;;4910061;29;20218;-74
2022/07/29 19:25:02;;;;;;;2.33;2.13;;;23.70;60.30;;;;;;4909989;29;20291;-74
2022/07/29 19:27:30;;;;;;;2.22;2.08;;;23.70;61.10;;;;;;4911024;29;20270;-74
2022/07/29 19:29:57;;;;;;;2.10;1.85;;;23.70;60.60;;;;;;4912385;29;20301;-74
2022/07/29 19:32:24;;;;;;;3.92;2.45;;;23.60;59.70;;;;;;4911374;29;20631;-76
2022/07/29 19:37:32;;;;;;;2.15;1.95;;;23.50;60.30;;;;;;4912535;29;20207;-74
2022/07/29 19:39:59;;;;;;;2.55;2.35;;;23.50;61.30;;;;;;4914689;29;20215;-73
2022/07/29 19:42:26;;;;;;;4.05;2.85;;;23.40;59.20;;;;;;4912738;29;20725;-71
2022/07/29 19:44:54;;;;;;;2.63;2.42;;;23.40;62.90;;;;;;4914919;29;20651;-70
2022/07/29 19:47:21;;;;;;;3.25;2.53;;;23.40;61.80;;;;;;4914434;29;20208;-78
2022/07/29 19:49:48;;;;;;;3.53;2.10;;;23.30;63.30;;;;;;4915557;29;20350;-71
2022/07/29 19:52:15;;;;;;;3.47;1.80;;;23.30;65.40;;;;;;4900822;29;20211;-78
2022/07/29 19:54:42;;;;;;;2.60;2.40;;;23.30;64.20;;;;;;4898144;29;20216;-78
2022/07/29 19:57:09;;;;;;;2.13;2.03;;;23.30;65.30;;;;;;4903433;29;20688;-72
2022/07/29 19:59:36;;;;;;;2.22;2.03;;;23.30;66.10;;;;;;4902182;29;20591;-74
2022/07/29 20:02:04;;;;;;;2.80;2.60;;;23.20;64.90;;;;;;4906645;29;20211;-76
2022/07/29 20:04:31;;;;;;;3.58;2.50;;;23.20;65.90;;;;;;4914341;29;20274;-74
2022/07/29 20:06:59;;;;;;;3.17;1.70;;;23.20;66.60;;;;;;4898132;29;20212;-74
2022/07/29 20:09:27;;;;;;;2.92;2.60;;;23.20;65.30;;;;;;4900206;29;20208;-74
2022/07/29 20:11:54;;;;;;;2.70;2.50;;;23.10;66.60;;;;;;4910142;29;20216;-73
2022/07/29 20:14:21;;;;;;;2.53;2.33;;;23.10;69.10;;;;;;4899750;29;20591;-76
2022/07/29 20:16:48;;;;;;;2.42;2.30;;;23.10;67.90;;;;;;4900385;29;20208;-76
2022/07/29 20:19:17;;;;;;;2.58;2.28;;;23.10;68.00;;;;;;4900396;29;20280;-73
2022/07/29 20:21:44;;;;;;;2.45;2.25;;;23.00;68.70;;;;;;4902429;29;20287;-76
2022/07/29 20:24:11;;;;;;;2.28;2.08;;;23.00;69.00;;;;;;4900386;29;20625;-73
2022/07/29 20:26:38;;;;;;;2.58;2.38;;;22.90;69.50;;;;;;4900986;29;20263;-74
2022/07/29 20:29:05;;;;;;;1.75;1.65;;;22.90;71.60;;;;;;4901819;29;20212;-73
2022/07/29 20:31:32;;;;;;;2.63;2.15;;;22.90;70.50;;;;;;4907247;29;20203;-73
2022/07/29 20:34:00;;;;;;;1.85;1.75;;;22.90;71.00;;;;;;4902575;29;20216;-73
2022/07/29 20:36:28;;;;;;;3.03;2.03;;;22.80;74.50;;;;;;4907850;29;20219;-72
2022/07/29 20:38:56;;;;;;;2.58;2.28;;;22.80;71.40;;;;;;4903972;29;20744;-73
2022/07/29 20:41:23;;;;;;;2.70;2.50;;;22.80;71.80;;;;;;4907839;29;20207;-73
2022/07/29 20:43:50;;;;;;;2.20;1.75;;;22.80;72.10;;;;;;4905848;29;20220;-72
2022/07/29 20:46:17;;;;;;;2.58;2.38;;;22.70;73.40;;;;;;4907742;29;20244;-73
2022/07/29 20:48:44;;;;;;;2.28;1.92;;;22.60;72.10;;;;;;4908744;29;20215;-75
2022/07/29 20:51:11;;;;;;;2.78;2.50;;;22.60;74.10;;;;;;4908278;29;20211;-72
2022/07/29 20:53:40;;;;;;;2.05;1.88;;;22.60;73.90;;;;;;4910919;29;20267;-71
2022/07/29 20:56:07;;;;;;;2.05;1.88;;;22.60;73.90;;;;;;4899107;29;20213;-71
2022/07/29 20:58:35;;;;;;;2.30;1.98;;;22.60;73.50;;;;;;4911158;29;20263;-71
2022/07/29 21:01:02;;;;;;;2.25;1.98;;;22.60;75.60;;;;;;4899066;29;20738;-75
2022/07/29 21:03:29;;;;;;;2.72;2.35;;;22.50;74.60;;;;;;4907909;29;20214;-74
2022/07/29 21:05:56;;;;;;;2.55;2.25;;;22.50;75.60;;;;;;4897806;29;20271;-73
2022/07/29 21:08:23;;;;;;;3.78;2.40;;;22.50;75.70;;;;;;4898080;29;20588;-74
2022/07/29 21:10:52;;;;;;;3.30;2.75;;;22.50;78.20;;;;;;4897526;29;20292;-72
2022/07/29 21:13:21;;;;;;;3.88;1.98;;;22.50;77.80;;;;;;4898512;29;20222;-73
2022/07/29 21:15:49;;;;;;;2.53;2.20;;;22.50;78.60;;;;;;4898266;29;20220;-72
2022/07/29 21:18:26;;;;;;;2.47;2.28;;;22.50;78.00;;;;;;4901126;29;20216;-78
2022/07/29 21:20:53;;;;;;;2.45;2.30;;;22.40;78.80;;;;;;4898495;29;20244;-78
2022/07/29 21:23:20;;;;;;;2.70;2.30;;;22.40;80.30;;;;;;4895779;29;20358;-76
2022/07/29 21:25:47;;;;;;;2.20;1.83;;;22.40;79.50;;;;;;4899084;29;20239;-79
2022/07/29 21:28:26;;;;;;;2.33;2.10;;;22.40;79.10;;;;;;4903863;29;20204;-78
2022/07/29 21:30:53;;;;;;;2.60;2.40;;;22.30;79.50;;;;;;4900479;29;20303;-80
2022/07/29 21:33:20;;;;;;;2.47;2.20;;;22.30;99.90;;;;;;4900825;29;20259;-77
2022/07/29 21:35:47;;;;;;;3.10;2.40;;;22.30;81.70;;;;;;4900774;29;20212;-77
2022/07/29 21:38:15;;;;;;;2.30;2.10;;;22.30;82.80;;;;;;4906413;29;20211;-76
2022/07/29 21:40:42;;;;;;;2.05;1.90;;;22.20;81.40;;;;;;4901925;29;20216;-76
2022/07/29 21:43:09;;;;;;;2.85;2.65;;;22.20;84.80;;;;;;4906782;29;20266;-76
2022/07/29 21:45:38;;;;;;;3.35;2.45;;;22.20;83.50;;;;;;4903755;29;20292;-73
2022/07/29 21:48:05;;;;;;;3.13;2.90;;;22.20;85.30;;;;;;4907329;29;20275;-77
2022/07/29 21:50:32;;;;;;;3.05;2.58;;;22.00;85.50;;;;;;4906822;29;20211;-75
2022/07/29 21:52:59;;;;;;;3.65;2.58;;;22.00;87.30;;;;;;4899579;29;20739;-73
2022/07/29 21:55:27;;;;;;;2.63;2.38;;;22.00;88.00;;;;;;4900450;29;20748;-76
2022/07/29 21:57:54;;;;;;;3.45;3.00;;;22.10;89.20;;;;;;4909405;29;20286;-77
2022/07/29 22:00:24;;;;;;;3.88;3.50;;;22.10;89.40;;;;;;4911583;29;20215;-76
2022/07/29 22:02:53;;;;;;;3.85;3.47;;;22.20;88.10;;;;;;4911896;29;20722;-74
2022/07/29 22:05:20;;;;;;;4.43;4.05;;;22.30;90.00;;;;;;4896146;29;20232;-75
2022/07/29 22:07:48;;;;;;;5.70;5.30;;;22.20;87.30;;;;;;4895595;29;20626;-73
2022/07/29 22:10:16;;;;;;;5.32;4.93;;;22.20;92.90;;;;;;4894467;29;20251;-72
2022/07/29 22:12:42;;;;;;;4.30;3.97;;;22.20;87.60;;;;;;4896077;29;20267;-71
2022/07/29 22:15:10;;;;;;;4.38;3.83;;;22.20;88.50;;;;;;4897112;29;20209;-74
2022/07/29 22:17:37;;;;;;;4.30;3.33;;;22.20;88.20;;;;;;4896408;29;20212;-74
2022/07/29 22:20:07;;;;;;;4.50;3.95;;;22.20;89.10;;;;;;4899269;29;20208;-72
2022/07/29 22:22:34;;;;;;;3.28;2.97;;;22.10;88.10;;;;;;4897574;29;20209;-72
2022/07/29 22:25:01;;;;;;;4.57;3.45;;;22.10;88.90;;;;;;4900374;29;20239;-72
2022/07/29 22:27:28;;;;;;;4.78;4.07;;;22.00;90.20;;;;;;4898606;29;20632;-72
2022/07/29 22:29:55;;;;;;;6.22;3.40;;;21.90;91.10;;;;;;4901909;29;20292;-72
2022/07/29 22:32:22;;;;;;;3.90;3.55;;;21.90;90.00;;;;;;4899226;29;20214;-73
2022/07/29 22:34:49;;;;;;;8.55;7.72;;;22.00;91.00;;;;;;4902223;29;20679;-73
2022/07/29 22:37:17;;;;;;;7.35;6.43;;;22.00;90.90;;;;;;4900295;29;20209;-76
2022/07/29 22:39:44;;;;;;;5.85;5.35;;;21.90;90.70;;;;;;4902281;29;20267;-75
2022/07/29 22:42:11;;;;;;;6.47;4.90;;;21.90;91.40;;;;;;4901957;29;20212;-75
2022/07/29 22:44:38;;;;;;;5.40;4.50;;;21.90;91.20;;;;;;4901964;29;20268;-75
2022/07/29 22:47:05;;;;;;;6.25;5.68;;;21.80;91.80;;;;;;4904224;29;20778;-77
2022/07/29 22:49:32;;;;;;;6.20;5.63;;;21.80;92.40;;;;;;4902041;29;20620;-75
2022/07/29 22:52:00;;;;;;;5.85;5.35;;;21.80;93.50;;;;;;4906875;29;20653;-73
2022/07/29 22:54:28;;;;;;;4.18;3.80;;;21.80;92.40;;;;;;4902921;29;20211;-73
2022/07/29 22:56:55;;;;;;;4.15;3.85;;;21.80;92.80;;;;;;4901289;29;20569;-72
2022/07/29 22:59:22;;;;;;;3.53;3.22;;;21.80;92.10;;;;;;4902526;29;20208;-74
2022/07/29 23:01:49;;;;;;;4.13;2.92;;;21.80;92.90;;;;;;4902275;29;20652;-73
2022/07/29 23:04:16;;;;;;;5.88;3.00;;;21.80;92.40;;;;;;4901233;29;20677;-75
2022/07/29 23:06:43;;;;;;;2.58;2.38;;;21.90;91.60;;;;;;4895784;29;20236;-73
2022/07/29 23:09:10;;;;;;;2.65;2.45;;;21.90;92.50;;;;;;4896220;29;20220;-74
2022/07/29 23:11:38;;;;;;;2.92;2.70;;;21.90;93.00;;;;;;4895977;29;20208;-75
2022/07/29 23:14:05;;;;;;;2.50;2.30;;;22.00;92.30;;;;;;4896475;29;20212;-75
2022/07/29 23:16:32;;;;;;;2.60;2.40;;;22.00;92.50;;;;;;4899101;29;20207;-74
2022/07/29 23:18:59;;;;;;;5.32;2.95;;;21.90;92.70;;;;;;4897721;29;20209;-75
2022/07/29 23:21:26;;;;;;;2.08;1.77;;;22.00;92.50;;;;;;4902774;29;20271;-72
2022/07/29 23:23:53;;;;;;;2.83;2.50;;;22.00;92.60;;;;;;4901262;29;20653;-72
2022/07/29 23:26:20;;;;;;;2.38;2.17;;;22.00;93.00;;;;;;4904718;29;20349;-71
2022/07/29 23:28:48;;;;;;;2.97;2.15;;;22.00;92.90;;;;;;4902629;29;20632;-72
2022/07/29 23:31:16;;;;;;;2.17;2.00;;;22.00;93.30;;;;;;4902201;29;20213;-74
2022/07/29 23:33:43;;;;;;;1.90;1.80;;;22.00;93.20;;;;;;4897672;29;20272;-73
2022/07/29 23:36:10;;;;;;;2.20;2.00;;;22.10;92.30;;;;;;4897897;29;20276;-74
2022/07/29 23:38:39;;;;;;;1.77;1.67;;;22.20;99.90;;;;;;4897562;29;20251;-74
2022/07/29 23:41:08;;;;;;;2.60;1.98;;;22.20;92.20;;;;;;4897461;29;20216;-74
2022/07/29 23:43:35;;;;;;;3.20;2.10;;;22.20;93.00;;;;;;4896671;29;20216;-74
2022/07/29 23:46:04;;;;;;;4.22;2.20;;;22.20;91.60;;;;;;4895969;29;20240;-74
2022/07/29 23:48:32;;;;;;;2.75;2.25;;;22.30;91.90;;;;;;4897772;29;20219;-74
2022/07/29 23:50:59;;;;;;;3.08;2.75;;;22.30;92.40;;;;;;4898081;29;20212;-74